createdAt,value
2022-12-11T00:00:30.959Z,1.80
2022-12-11T00:02:58.806Z,1.76
2022-12-11T00:05:26.575Z,1.60
2022-12-11T00:07:54.430Z,1.84
2022-12-11T00:10:22.269Z,1.76
2022-12-11T00:12:50.220Z,1.88
2022-12-11T00:15:18.442Z,1.93
2022-12-11T00:17:47.663Z,1.95
2022-12-11T00:20:16.165Z,1.78
2022-12-11T00:22:44.832Z,1.76
2022-12-11T00:25:12.936Z,1.78
2022-12-11T00:27:40.897Z,1.88
2022-12-11T00:30:09.799Z,1.75
2022-12-11T00:32:37.930Z,1.82
2022-12-11T00:35:08.390Z,1.56
2022-12-11T00:37:36.483Z,1.42
2022-12-11T00:40:05.033Z,1.51
2022-12-11T00:42:32.867Z,1.50
2022-12-11T00:45:00.720Z,1.58
2022-12-11T00:47:28.497Z,1.57
2022-12-11T00:49:56.297Z,1.72
2022-12-11T00:52:25.400Z,1.66
2022-12-11T00:54:53.174Z,1.38
2022-12-11T00:57:20.912Z,1.48
2022-12-11T00:59:48.713Z,1.51
2022-12-11T01:02:16.508Z,1.52
2022-12-11T01:04:44.308Z,1.41
2022-12-11T01:07:12.073Z,1.41
2022-12-11T01:09:58.528Z,1.10
2022-12-11T01:12:28.449Z,1.14
2022-12-11T01:14:56.282Z,1.30
2022-12-11T01:17:24.162Z,1.35
2022-12-11T01:19:54.413Z,1.40
2022-12-11T01:22:22.224Z,1.33
2022-12-11T01:24:51.544Z,1.28
2022-12-11T01:27:19.377Z,1.31
2022-12-11T01:29:47.169Z,1.36
2022-12-11T01:32:14.949Z,1.08
2022-12-11T01:34:42.872Z,1.20
2022-12-11T01:37:10.750Z,1.10
2022-12-11T01:39:39.490Z,0.86
2022-12-11T01:42:11.792Z,0.78
2022-12-11T01:45:19.088Z,0.80
2022-12-11T01:47:46.918Z,0.77
2022-12-11T01:50:15.117Z,0.66
2022-12-11T01:52:44.260Z,0.95
2022-12-11T01:55:12.646Z,0.81
2022-12-11T01:57:44.818Z,0.83
2022-12-11T02:00:13.571Z,0.88
2022-12-11T02:02:41.922Z,0.98
2022-12-11T02:05:10.471Z,0.65
2022-12-11T02:07:42.404Z,0.71
2022-12-11T02:10:12.084Z,0.67
2022-12-11T02:12:49.346Z,0.74
2022-12-11T02:15:25.793Z,0.98
2022-12-11T02:17:59.848Z,0.69
2022-12-11T02:20:31.859Z,0.64
2022-12-11T02:23:24.568Z,0.73
2022-12-11T02:26:04.333Z,0.82
2022-12-11T02:28:36.242Z,0.66
2022-12-11T02:31:08.433Z,0.83
2022-12-11T02:33:45.470Z,0.62
2022-12-11T02:36:15.865Z,0.80
2022-12-11T02:38:50.535Z,0.84
2022-12-11T02:41:20.247Z,0.68
2022-12-11T02:43:51.697Z,0.71
2022-12-11T02:46:21.803Z,0.97
2022-12-11T02:48:52.278Z,0.88
2022-12-11T02:51:35.081Z,0.79
2022-12-11T02:54:04.601Z,0.75
2022-12-11T02:56:39.611Z,0.62
2022-12-11T02:59:15.695Z,0.31
2022-12-11T03:01:44.069Z,0.53
2022-12-11T03:04:12.150Z,0.53
2022-12-11T03:06:45.453Z,0.62
2022-12-11T03:09:13.473Z,0.75
2022-12-11T03:11:41.414Z,0.74
2022-12-11T03:14:11.428Z,0.49
2022-12-11T03:16:42.815Z,0.46
2022-12-11T03:19:20.480Z,0.46
2022-12-11T03:21:54.753Z,0.87
2022-12-11T03:24:31.430Z,0.52
2022-12-11T03:27:08.169Z,0.58
2022-12-11T03:29:45.848Z,0.73
2022-12-11T03:32:15.823Z,0.65
2022-12-11T03:34:48.090Z,0.86
2022-12-11T03:37:17.848Z,1.08
2022-12-11T03:39:50.058Z,0.98
2022-12-11T03:42:20.549Z,0.75
2022-12-11T03:44:52.928Z,1.11
2022-12-11T03:47:25.168Z,0.95
2022-12-11T03:49:54.664Z,0.86
2022-12-11T03:52:24.126Z,0.72
2022-12-11T03:54:52.609Z,0.91
2022-12-11T03:57:25.796Z,0.92
2022-12-11T03:59:55.099Z,0.94
2022-12-11T04:02:22.860Z,1.15
2022-12-11T04:04:50.685Z,0.98
2022-12-11T04:07:18.548Z,0.99
2022-12-11T04:09:46.363Z,0.66
2022-12-11T04:12:14.144Z,0.94
2022-12-11T04:14:59.245Z,0.66
2022-12-11T04:17:46.440Z,0.75
2022-12-11T04:20:31.776Z,0.83
2022-12-11T04:23:17.059Z,0.62
2022-12-11T04:25:44.872Z,0.67
2022-12-11T04:28:12.676Z,1.01
2022-12-11T04:30:40.516Z,0.92
2022-12-11T04:33:09.857Z,0.87
2022-12-11T04:35:37.588Z,0.69
2022-12-11T04:38:05.427Z,0.94
2022-12-11T04:40:33.357Z,0.83
2022-12-11T04:43:01.089Z,0.76
2022-12-11T04:45:28.787Z,0.69
2022-12-11T04:47:56.684Z,0.74
2022-12-11T04:50:25.899Z,0.87
2022-12-11T04:52:56.120Z,0.88
2022-12-11T04:55:24.315Z,0.76
2022-12-11T04:57:52.093Z,1.12
2022-12-11T05:00:20.031Z,0.84
2022-12-11T05:02:47.773Z,0.88
2022-12-11T05:05:15.631Z,0.88
2022-12-11T05:07:44.792Z,0.70
2022-12-11T05:10:12.533Z,0.85
2022-12-11T05:12:40.436Z,0.89
2022-12-11T05:15:09.627Z,1.01
2022-12-11T05:17:37.733Z,1.16
2022-12-11T05:20:06.085Z,1.21
2022-12-11T05:22:33.977Z,1.06
2022-12-11T05:25:03.298Z,1.37
2022-12-11T05:27:31.146Z,1.05
2022-12-11T05:29:59.841Z,1.33
2022-12-11T05:32:28.109Z,1.39
2022-12-11T05:34:55.883Z,1.50
2022-12-11T05:37:23.767Z,1.25
2022-12-11T05:39:51.479Z,1.43
2022-12-11T05:42:24.089Z,1.45
2022-12-11T05:44:56.269Z,1.50
2022-12-11T05:47:24.127Z,1.66
2022-12-11T05:49:51.936Z,1.66
2022-12-11T05:52:19.785Z,1.15
2022-12-11T05:54:49.810Z,1.35
2022-12-11T05:57:17.697Z,1.42
2022-12-11T05:59:47.218Z,1.31
2022-12-11T06:02:15.184Z,1.40
2022-12-11T06:04:43.051Z,1.25
2022-12-11T06:07:10.860Z,1.27
2022-12-11T06:09:38.685Z,1.43
2022-12-11T06:12:06.792Z,1.15
2022-12-11T06:14:34.543Z,1.39
2022-12-11T06:17:03.719Z,1.30
2022-12-11T06:19:36.515Z,1.50
2022-12-11T06:22:04.706Z,1.37
2022-12-11T06:24:32.548Z,1.42
2022-12-11T06:27:00.240Z,1.28
2022-12-11T06:29:28.044Z,1.37
2022-12-11T06:31:55.780Z,1.20
2022-12-11T06:34:24.956Z,1.28
2022-12-11T06:36:52.808Z,1.26
2022-12-11T06:39:20.625Z,1.22
2022-12-11T06:41:48.398Z,1.14
2022-12-11T06:44:16.269Z,1.30
2022-12-11T06:46:44.177Z,1.56
2022-12-11T06:49:11.936Z,1.65
2022-12-11T06:51:41.166Z,1.55
2022-12-11T06:54:09.006Z,1.55
2022-12-11T06:56:36.809Z,1.72
2022-12-11T06:59:07.517Z,1.76
2022-12-11T07:01:35.533Z,1.76
2022-12-11T07:04:03.368Z,2.00
2022-12-11T07:06:31.162Z,2.07
2022-12-11T07:09:00.420Z,2.15
2022-12-11T07:11:28.151Z,2.13
2022-12-11T07:13:56.036Z,2.08
2022-12-11T07:16:23.933Z,2.16
2022-12-11T07:18:53.675Z,2.26
2022-12-11T07:21:21.897Z,2.07
2022-12-11T07:23:50.197Z,1.93
2022-12-11T07:26:22.045Z,1.79
2022-12-11T07:28:50.312Z,1.91
2022-12-11T07:31:21.203Z,2.04
2022-12-11T07:33:49.076Z,1.84
2022-12-11T07:36:17.262Z,2.03
2022-12-11T07:38:45.044Z,2.24
2022-12-11T07:41:14.304Z,2.31
2022-12-11T07:43:44.279Z,2.29
2022-12-11T07:46:14.363Z,2.25
2022-12-11T07:48:43.832Z,2.41
2022-12-11T07:51:12.896Z,2.54
2022-12-11T07:53:40.679Z,2.50
2022-12-11T07:56:08.967Z,2.63
2022-12-11T07:58:38.816Z,2.28
2022-12-11T08:01:12.820Z,2.09
2022-12-11T08:03:40.732Z,2.26
2022-12-11T08:06:08.884Z,2.36
2022-12-11T08:08:36.716Z,2.33
2022-12-11T08:11:05.044Z,2.41
2022-12-11T08:13:33.250Z,2.45
2022-12-11T08:16:04.825Z,2.37
2022-12-11T08:18:34.632Z,2.37
2022-12-11T08:21:06.817Z,2.65
2022-12-11T08:23:35.012Z,2.45
2022-12-11T08:26:04.673Z,2.46
2022-12-11T08:28:32.793Z,2.52
2022-12-11T08:31:01.588Z,2.56
2022-12-11T08:33:29.431Z,2.55
2022-12-11T08:35:58.698Z,2.55
2022-12-11T08:38:26.435Z,2.53
2022-12-11T08:40:54.171Z,2.36
2022-12-11T08:43:21.935Z,2.50
2022-12-11T08:45:49.711Z,2.25
2022-12-11T08:48:17.587Z,2.53
2022-12-11T08:50:45.393Z,2.58
2022-12-11T08:53:14.543Z,2.76
2022-12-11T08:55:42.271Z,2.89
2022-12-11T08:58:10.180Z,2.96
2022-12-11T09:00:37.904Z,2.80
2022-12-11T09:03:11.215Z,2.78
2022-12-11T09:05:40.852Z,2.91
2022-12-11T09:08:08.737Z,2.80
2022-12-11T09:10:37.913Z,2.84
2022-12-11T09:13:05.745Z,2.96
2022-12-11T09:15:33.554Z,3.17
2022-12-11T09:18:01.408Z,3.22
2022-12-11T09:20:29.152Z,2.61
2022-12-11T09:22:56.917Z,2.84
2022-12-11T09:25:24.646Z,2.77
2022-12-11T09:27:53.805Z,2.85
2022-12-11T09:30:21.724Z,2.98
2022-12-11T09:32:49.499Z,2.87
2022-12-11T09:35:17.412Z,2.75
2022-12-11T09:37:45.268Z,2.92
2022-12-11T09:40:14.237Z,3.08
2022-12-11T09:42:52.470Z,3.20
2022-12-11T09:45:22.331Z,3.30
2022-12-11T09:47:53.199Z,3.34
2022-12-11T09:50:24.648Z,3.18
2022-12-11T09:53:05.274Z,3.52
2022-12-11T09:55:43.954Z,3.24
2022-12-11T09:58:23.545Z,3.37
2022-12-11T10:00:59.652Z,3.50
2022-12-11T10:04:01.688Z,3.65
2022-12-11T10:06:35.395Z,3.49
2022-12-11T10:09:13.595Z,3.12
2022-12-11T10:11:56.901Z,3.41
2022-12-11T10:14:36.616Z,3.45
2022-12-11T10:17:12.537Z,3.35
2022-12-11T10:19:42.181Z,3.27
2022-12-11T10:22:18.511Z,3.25
2022-12-11T10:27:41.453Z,3.55
2022-12-11T10:30:16.765Z,3.66
2022-12-11T10:32:53.329Z,3.87
2022-12-11T10:35:30.613Z,3.80
2022-12-11T10:38:11.414Z,3.85
2022-12-11T10:40:41.004Z,3.57
2022-12-11T10:43:08.854Z,3.67
2022-12-11T10:45:37.500Z,3.95
2022-12-11T10:48:10.804Z,4.00
2022-12-11T10:50:39.116Z,4.20
2022-12-11T10:53:07.356Z,4.24
2022-12-11T10:55:45.098Z,3.78
2022-12-11T10:58:18.085Z,3.98
2022-12-11T11:00:47.148Z,3.94
2022-12-11T11:03:24.636Z,4.12
2022-12-11T11:06:04.196Z,3.76
2022-12-11T11:08:40.548Z,4.22
2022-12-11T11:11:22.652Z,4.20
2022-12-11T11:13:50.557Z,3.80
2022-12-11T11:16:22.005Z,3.86
2022-12-11T11:18:56.608Z,4.36
2022-12-11T11:21:26.876Z,4.53
2022-12-11T11:23:55.530Z,4.25
2022-12-11T11:26:38.222Z,3.95
2022-12-11T11:29:26.226Z,4.13
2022-12-11T11:31:54.084Z,3.86
2022-12-11T11:34:23.316Z,3.89
2022-12-11T11:36:57.959Z,3.95
2022-12-11T11:39:32.305Z,3.82
2022-12-11T11:42:05.899Z,3.81
2022-12-11T11:44:35.429Z,3.64
2022-12-11T11:47:11.657Z,3.67
2022-12-11T11:49:53.577Z,3.60
2022-12-11T11:52:30.272Z,3.71
2022-12-11T11:55:09.688Z,3.83
2022-12-11T11:57:43.783Z,4.22
2022-12-11T12:00:20.780Z,4.28
2022-12-11T12:02:50.790Z,4.43
2022-12-11T12:05:26.960Z,4.41
2022-12-11T12:08:06.643Z,4.16
2022-12-11T12:10:44.660Z,4.16
2022-12-11T12:13:48.148Z,4.38
2022-12-11T12:16:51.042Z,4.66
2022-12-11T12:19:21.288Z,4.50
2022-12-11T12:21:53.193Z,4.51
2022-12-11T12:24:35.017Z,4.50
2022-12-11T12:27:50.473Z,4.60
2022-12-11T12:30:17.379Z,4.79
2022-12-11T12:33:02.705Z,4.87
2022-12-11T12:35:36.986Z,4.76
2022-12-11T12:38:15.913Z,5.02
2022-12-11T12:40:57.504Z,5.26
2022-12-11T12:43:43.377Z,5.58
2022-12-11T12:46:22.063Z,5.63
2022-12-11T12:48:52.029Z,5.45
2022-12-11T12:51:20.257Z,5.67
2022-12-11T12:53:56.628Z,5.21
2022-12-11T12:56:25.955Z,5.27
2022-12-11T12:58:53.864Z,5.56
2022-12-11T13:01:25.544Z,5.68
2022-12-11T13:03:57.551Z,5.82
2022-12-11T13:06:35.217Z,5.69
2022-12-11T13:09:18.114Z,6.05
2022-12-11T13:11:47.085Z,6.18
2022-12-11T13:14:28.779Z,5.82
2022-12-11T13:17:08.816Z,5.36
2022-12-11T13:19:42.310Z,5.49
2022-12-11T13:22:25.090Z,5.50
2022-12-11T13:25:01.688Z,5.78
2022-12-11T13:27:39.034Z,5.56
2022-12-11T13:30:09.759Z,5.40
2022-12-11T13:32:37.871Z,5.47
2022-12-11T13:35:08.091Z,5.37
2022-12-11T13:37:39.783Z,5.85
2022-12-11T13:40:17.361Z,5.66
2022-12-11T13:42:50.255Z,5.20
2022-12-11T13:45:26.951Z,5.98
2022-12-11T13:47:56.086Z,6.54
2022-12-11T13:50:27.596Z,7.20
2022-12-11T13:52:56.073Z,7.25
2022-12-11T13:55:28.035Z,6.89
2022-12-11T13:57:55.876Z,6.57
2022-12-11T14:00:25.880Z,6.89
2022-12-11T14:02:56.051Z,6.56
2022-12-11T14:05:24.616Z,6.29
2022-12-11T14:07:56.077Z,6.50
2022-12-11T14:10:27.293Z,5.75
2022-12-11T14:12:58.394Z,5.41
2022-12-11T14:15:27.205Z,5.42
2022-12-11T14:17:55.949Z,5.41
2022-12-11T14:20:26.361Z,5.41
2022-12-11T14:23:04.928Z,5.14
2022-12-11T14:25:34.161Z,4.99
2022-12-11T14:28:02.704Z,4.95
2022-12-11T14:30:34.231Z,4.99
2022-12-11T14:33:06.006Z,4.87
2022-12-11T14:35:38.939Z,4.87
2022-12-11T14:38:12.459Z,5.16
2022-12-11T14:40:44.659Z,5.08
2022-12-11T14:43:16.528Z,4.85
2022-12-11T14:45:47.843Z,4.68
2022-12-11T14:48:23.488Z,4.89
2022-12-11T14:50:53.185Z,4.70
2022-12-11T14:53:26.264Z,4.89
2022-12-11T14:55:56.747Z,4.87
2022-12-11T14:58:27.149Z,4.87
2022-12-11T15:01:00.721Z,5.17
2022-12-11T15:03:32.390Z,5.02
2022-12-11T15:06:00.459Z,5.33
2022-12-11T15:08:30.485Z,5.37
2022-12-11T15:11:06.644Z,5.41
2022-12-11T15:13:36.349Z,5.25
2022-12-11T15:16:07.708Z,4.96
2022-12-11T15:18:39.155Z,5.11
2022-12-11T15:21:09.983Z,5.38
2022-12-11T15:23:50.695Z,5.19
2022-12-11T15:26:20.759Z,5.17
2022-12-11T15:28:48.631Z,5.11
2022-12-11T15:31:26.267Z,5.27
2022-12-11T15:33:54.587Z,5.29
2022-12-11T15:36:26.670Z,5.01
2022-12-11T15:38:54.506Z,4.73
2022-12-11T15:41:25.027Z,4.42
2022-12-11T15:43:58.917Z,4.55
2022-12-11T15:46:27.103Z,4.87
2022-12-11T15:48:55.018Z,5.00
2022-12-11T15:51:22.938Z,5.21
2022-12-11T15:53:50.797Z,5.11
2022-12-11T15:56:18.672Z,4.96
2022-12-11T15:58:49.411Z,4.80
2022-12-11T16:01:17.475Z,4.76
2022-12-11T16:03:45.794Z,4.78
2022-12-11T16:06:14.588Z,4.78
2022-12-11T16:08:42.429Z,4.52
2022-12-11T16:11:13.854Z,4.66
2022-12-11T16:13:41.631Z,4.69
2022-12-11T16:16:10.892Z,4.78
2022-12-11T16:18:38.761Z,4.81
2022-12-11T16:21:07.449Z,4.31
2022-12-11T16:23:35.279Z,4.44
2022-12-11T16:26:07.650Z,4.47
2022-12-11T16:28:35.419Z,4.51
2022-12-11T16:31:03.271Z,4.71
2022-12-11T16:33:33.068Z,4.60
2022-12-11T16:36:01.031Z,4.66
2022-12-11T16:38:28.820Z,4.71
2022-12-11T16:41:03.035Z,4.64
2022-12-11T16:43:30.855Z,4.60
2022-12-11T16:45:58.576Z,4.38
2022-12-11T16:48:26.393Z,4.10
2022-12-11T16:50:56.028Z,4.18
2022-12-11T16:53:23.917Z,4.13
2022-12-11T16:55:52.261Z,4.11
2022-12-11T16:58:20.180Z,4.05
2022-12-11T17:00:48.890Z,4.06
2022-12-11T17:03:17.080Z,4.04
2022-12-11T17:05:45.055Z,4.05
2022-12-11T17:08:14.364Z,3.85
2022-12-11T17:10:43.579Z,3.89
2022-12-11T17:13:11.407Z,3.85
2022-12-11T17:15:41.266Z,3.62
2022-12-11T17:18:09.646Z,3.66
2022-12-11T17:20:41.685Z,3.69
2022-12-11T17:23:10.613Z,4.01
2022-12-11T17:25:42.064Z,4.07
2022-12-11T17:28:10.563Z,3.94
2022-12-11T17:30:41.841Z,3.94
2022-12-11T17:33:09.668Z,3.99
2022-12-11T17:35:37.591Z,4.16
2022-12-11T17:38:05.397Z,4.30
2022-12-11T17:40:33.190Z,4.32
2022-12-11T17:43:06.256Z,4.34
2022-12-11T17:45:33.978Z,4.23
2022-12-11T17:48:01.859Z,4.07
2022-12-11T17:50:29.615Z,4.05
2022-12-11T17:52:57.761Z,4.28
2022-12-11T17:55:25.701Z,4.17
2022-12-11T17:57:53.500Z,4.05
2022-12-11T18:00:24.535Z,4.10
2022-12-11T18:02:53.168Z,3.90
2022-12-11T18:05:21.043Z,3.88
2022-12-11T18:07:52.812Z,4.15
2022-12-11T18:10:23.793Z,4.34
2022-12-11T18:12:51.510Z,4.35
2022-12-11T18:15:19.569Z,4.25
2022-12-11T18:17:48.751Z,4.18
2022-12-11T18:20:16.837Z,4.23
2022-12-11T18:22:44.655Z,4.27
2022-12-11T18:25:13.021Z,4.30
2022-12-11T18:27:41.108Z,4.27
2022-12-11T18:30:10.191Z,4.31
2022-12-11T18:32:38.000Z,4.36
2022-12-11T18:35:08.284Z,4.33
2022-12-11T18:37:36.915Z,4.24
2022-12-11T18:40:04.880Z,4.19
2022-12-11T18:42:33.742Z,4.20
2022-12-11T18:45:01.900Z,4.15
2022-12-11T18:47:29.682Z,4.01
2022-12-11T18:50:00.114Z,4.11
2022-12-11T18:52:33.348Z,3.91
2022-12-11T18:55:01.230Z,3.72
2022-12-11T18:57:29.054Z,3.76
2022-12-11T18:59:56.851Z,3.82
2022-12-11T19:02:24.636Z,3.78
2022-12-11T19:04:52.442Z,3.72
2022-12-11T19:07:20.220Z,3.58
2022-12-11T19:09:49.408Z,3.64
2022-12-11T19:12:18.465Z,3.64
2022-12-11T19:14:46.327Z,3.58
2022-12-11T19:17:14.092Z,3.56
2022-12-11T19:19:43.162Z,3.37
2022-12-11T19:22:10.883Z,3.48
2022-12-11T19:24:38.723Z,3.46
2022-12-11T19:27:13.191Z,3.40
2022-12-11T19:29:41.562Z,3.39
2022-12-11T19:32:09.694Z,3.45
2022-12-11T19:34:38.498Z,3.45
2022-12-11T19:37:06.414Z,3.34
2022-12-11T19:39:34.404Z,3.32
2022-12-11T19:42:02.191Z,3.25
2022-12-11T19:44:31.478Z,3.15
2022-12-11T19:46:59.440Z,3.12
2022-12-11T19:49:27.223Z,3.19
2022-12-11T19:51:54.994Z,3.09
2022-12-11T19:54:22.803Z,3.09
2022-12-11T19:56:50.513Z,2.94
2022-12-11T19:59:18.896Z,2.73
2022-12-11T20:01:49.034Z,2.70
2022-12-11T20:04:18.264Z,2.85
2022-12-11T20:06:47.451Z,2.89
2022-12-11T20:09:16.310Z,2.59
2022-12-11T20:11:47.353Z,2.62
2022-12-11T20:14:21.250Z,2.70
2022-12-11T20:17:10.879Z,2.75
2022-12-11T20:19:39.025Z,2.84
2022-12-11T20:22:06.876Z,2.94
2022-12-11T20:24:34.679Z,2.96
2022-12-11T20:27:02.530Z,3.21
2022-12-11T20:29:30.324Z,3.41
2022-12-11T20:32:00.453Z,3.45
2022-12-11T20:34:28.352Z,3.60
2022-12-11T20:36:56.369Z,3.69
2022-12-11T20:39:24.346Z,3.77
2022-12-11T20:41:52.120Z,3.70
2022-12-11T20:44:20.261Z,3.58
2022-12-11T20:46:48.050Z,3.40
2022-12-11T20:49:17.229Z,3.26
2022-12-11T20:51:45.046Z,3.39
2022-12-11T20:54:12.855Z,3.63
2022-12-11T20:56:40.552Z,3.74
2022-12-11T20:59:08.485Z,3.75
2022-12-11T21:01:36.211Z,3.67
2022-12-11T21:04:04.219Z,3.82
2022-12-11T21:06:35.800Z,3.85
2022-12-11T21:09:06.732Z,3.79
2022-12-11T21:11:34.834Z,3.89
2022-12-11T21:14:02.642Z,3.80
2022-12-11T21:16:30.650Z,3.86
2022-12-11T21:18:59.460Z,3.63
2022-12-11T21:21:27.599Z,3.47
2022-12-11T21:23:57.002Z,3.50
2022-12-11T21:26:25.087Z,3.44
2022-12-11T21:28:53.243Z,3.41
2022-12-11T21:31:21.374Z,3.65
2022-12-11T21:33:49.627Z,3.58
2022-12-11T21:36:18.884Z,3.51
2022-12-11T21:38:47.665Z,3.30
2022-12-11T21:41:18.934Z,3.37
2022-12-11T21:45:25.564Z,3.36
2022-12-11T21:46:36.240Z,3.30
2022-12-11T21:49:04.513Z,3.56
2022-12-11T21:51:37.737Z,3.65
2022-12-11T21:54:10.156Z,3.89
2022-12-11T21:56:39.308Z,3.91
2022-12-11T21:59:07.188Z,4.12
2022-12-11T22:01:38.201Z,4.21
2022-12-11T22:04:06.737Z,4.15
2022-12-11T22:06:35.633Z,4.06
2022-12-11T22:09:03.739Z,4.18
2022-12-11T22:11:33.300Z,4.27
2022-12-11T22:14:03.093Z,4.34
2022-12-11T22:16:31.583Z,4.29
2022-12-11T22:18:59.537Z,4.19
2022-12-11T22:21:27.660Z,4.21
2022-12-11T22:23:55.453Z,4.23
2022-12-11T22:26:25.233Z,4.28
2022-12-11T22:28:53.958Z,4.25
2022-12-11T22:31:26.392Z,4.12
2022-12-11T22:33:55.401Z,4.22
2022-12-11T22:36:23.848Z,4.30
2022-12-11T22:38:51.891Z,4.40
2022-12-11T22:41:24.836Z,4.34
2022-12-11T22:43:53.055Z,4.39
2022-12-11T22:46:24.957Z,4.33
2022-12-11T22:48:53.252Z,4.22
2022-12-11T22:51:22.025Z,4.11
2022-12-11T22:53:49.813Z,4.10
2022-12-11T22:56:17.812Z,4.18
2022-12-11T22:58:45.526Z,4.05
2022-12-11T23:01:17.053Z,3.90
2022-12-11T23:03:46.807Z,3.86
2022-12-11T23:06:17.056Z,3.98
2022-12-11T23:08:45.543Z,3.90
2022-12-11T23:11:15.575Z,3.81
2022-12-11T23:13:44.165Z,3.86
2022-12-11T23:16:12.543Z,3.88
2022-12-11T23:18:40.809Z,3.90
2022-12-11T23:21:11.711Z,3.95
2022-12-11T23:23:40.333Z,3.96
2022-12-11T23:26:10.767Z,3.97
2022-12-11T23:28:39.153Z,3.91
2022-12-11T23:31:06.970Z,3.87
2022-12-11T23:33:34.796Z,3.93
2022-12-11T23:36:02.980Z,3.81
2022-12-11T23:38:32.728Z,3.86
2022-12-11T23:41:03.031Z,3.98
2022-12-11T23:43:31.167Z,4.06
2022-12-11T23:45:59.020Z,4.10
2022-12-11T23:48:26.904Z,4.12
2022-12-11T23:50:59.383Z,4.21
2022-12-11T23:53:27.616Z,4.32
2022-12-11T23:55:56.875Z,4.32
2022-12-11T23:58:24.684Z,4.30
